sensor_id;sensor_type;location;lat;lon;timestamp;temperature;humidity
47338;DHT22;33069;51.970;5.892;2024-03-23T00:54:48;7.40;88.90
47338;DHT22;33069;51.970;5.892;2024-03-23T00:57:34;7.20;88.90
47338;DHT22;33069;51.970;5.892;2024-03-23T01:00:20;7.30;88.90
47338;DHT22;33069;51.970;5.892;2024-03-23T01:03:06;7.20;88.80
47338;DHT22;33069;51.970;5.892;2024-03-23T01:05:52;7.30;88.90
47338;DHT22;33069;51.970;5.892;2024-03-23T01:08:39;7.20;88.70
47338;DHT22;33069;51.970;5.892;2024-03-23T01:11:25;7.30;88.80
47338;DHT22;33069;51.970;5.892;2024-03-23T01:14:12;7.20;88.60
47338;DHT22;33069;51.970;5.892;2024-03-23T01:16:58;7.20;88.70
47338;DHT22;33069;51.970;5.892;2024-03-23T01:19:44;7.20;88.70
47338;DHT22;33069;51.970;5.892;2024-03-23T01:22:30;7.20;88.70
47338;DHT22;33069;51.970;5.892;2024-03-23T01:25:16;7.30;88.50
47338;DHT22;33069;51.970;5.892;2024-03-23T01:28:02;7.20;88.20
47338;DHT22;33069;51.970;5.892;2024-03-23T01:30:48;7.30;88.10
47338;DHT22;33069;51.970;5.892;2024-03-23T01:33:34;7.20;88.00
47338;DHT22;33069;51.970;5.892;2024-03-23T01:36:20;7.20;87.90
47338;DHT22;33069;51.970;5.892;2024-03-23T01:39:06;7.10;87.90
47338;DHT22;33069;51.970;5.892;2024-03-23T01:41:55;7.10;88.10
47338;DHT22;33069;51.970;5.892;2024-03-23T01:44:41;7.20;88.30
47338;DHT22;33069;51.970;5.892;2024-03-23T01:47:26;7.10;88.10
47338;DHT22;33069;51.970;5.892;2024-03-23T01:50:13;7.10;88.00
47338;DHT22;33069;51.970;5.892;2024-03-23T01:53:02;7.10;88.00
47338;DHT22;33069;51.970;5.892;2024-03-23T01:55:49;7.20;88.00
47338;DHT22;33069;51.970;5.892;2024-03-23T01:58:36;7.30;88.00
47338;DHT22;33069;51.970;5.892;2024-03-23T02:01:22;7.30;87.80
47338;DHT22;33069;51.970;5.892;2024-03-23T02:04:08;7.20;87.60
47338;DHT22;33069;51.970;5.892;2024-03-23T02:06:55;7.20;87.60
47338;DHT22;33069;51.970;5.892;2024-03-23T02:09:41;7.20;87.70
47338;DHT22;33069;51.970;5.892;2024-03-23T02:12:27;7.20;87.70
47338;DHT22;33069;51.970;5.892;2024-03-23T02:15:13;7.10;87.80
47338;DHT22;33069;51.970;5.892;2024-03-23T02:17:59;7.20;87.90
47338;DHT22;33069;51.970;5.892;2024-03-23T02:20:45;7.10;87.70
47338;DHT22;33069;51.970;5.892;2024-03-23T02:23:31;7.00;87.60
47338;DHT22;33069;51.970;5.892;2024-03-23T02:26:17;7.10;87.80
47338;DHT22;33069;51.970;5.892;2024-03-23T02:29:02;7.10;87.80
47338;DHT22;33069;51.970;5.892;2024-03-23T02:31:48;7.20;87.70
47338;DHT22;33069;51.970;5.892;2024-03-23T02:34:35;7.00;87.60
47338;DHT22;33069;51.970;5.892;2024-03-23T02:37:21;7.10;87.80
47338;DHT22;33069;51.970;5.892;2024-03-23T02:40:07;7.00;87.80
47338;DHT22;33069;51.970;5.892;2024-03-23T02:42:53;7.00;87.90
47338;DHT22;33069;51.970;5.892;2024-03-23T02:45:39;6.90;87.90
47338;DHT22;33069;51.970;5.892;2024-03-23T02:48:25;6.80;88.10
47338;DHT22;33069;51.970;5.892;2024-03-23T02:51:11;6.90;88.30
47338;DHT22;33069;51.970;5.892;2024-03-23T02:53:57;6.90;88.40
47338;DHT22;33069;51.970;5.892;2024-03-23T02:56:43;6.80;88.40
47338;DHT22;33069;51.970;5.892;2024-03-23T02:59:29;6.80;88.40
47338;DHT22;33069;51.970;5.892;2024-03-23T03:02:15;6.70;88.50
47338;DHT22;33069;51.970;5.892;2024-03-23T03:05:01;6.80;88.70
47338;DHT22;33069;51.970;5.892;2024-03-23T03:07:48;6.70;88.80
47338;DHT22;33069;51.970;5.892;2024-03-23T03:10:34;6.70;88.90
47338;DHT22;33069;51.970;5.892;2024-03-23T03:13:22;6.70;89.00
47338;DHT22;33069;51.970;5.892;2024-03-23T03:16:11;6.80;89.10
47338;DHT22;33069;51.970;5.892;2024-03-23T03:18:57;6.70;89.10
47338;DHT22;33069;51.970;5.892;2024-03-23T03:21:43;6.60;89.00
47338;DHT22;33069;51.970;5.892;2024-03-23T03:24:29;6.60;89.10
47338;DHT22;33069;51.970;5.892;2024-03-23T03:27:15;6.60;89.20
47338;DHT22;33069;51.970;5.892;2024-03-23T03:30:01;6.50;89.30
47338;DHT22;33069;51.970;5.892;2024-03-23T03:32:48;6.40;89.40
47338;DHT22;33069;51.970;5.892;2024-03-23T03:35:34;6.50;89.50
47338;DHT22;33069;51.970;5.892;2024-03-23T03:38:21;6.50;89.50
47338;DHT22;33069;51.970;5.892;2024-03-23T03:41:07;6.40;89.50
47338;DHT22;33069;51.970;5.892;2024-03-23T03:43:53;6.50;89.60
47338;DHT22;33069;51.970;5.892;2024-03-23T03:46:39;6.50;89.50
47338;DHT22;33069;51.970;5.892;2024-03-23T03:49:25;6.60;89.60
47338;DHT22;33069;51.970;5.892;2024-03-23T03:52:11;6.50;89.60
47338;DHT22;33069;51.970;5.892;2024-03-23T03:55:02;6.50;89.60
47338;DHT22;33069;51.970;5.892;2024-03-23T03:57:48;6.50;89.70
47338;DHT22;33069;51.970;5.892;2024-03-23T04:00:34;6.40;89.50
47338;DHT22;33069;51.970;5.892;2024-03-23T04:03:21;6.40;89.40
47338;DHT22;33069;51.970;5.892;2024-03-23T04:06:07;6.30;89.40
47338;DHT22;33069;51.970;5.892;2024-03-23T04:08:53;6.30;89.50
47338;DHT22;33069;51.970;5.892;2024-03-23T04:11:39;6.30;89.40
47338;DHT22;33069;51.970;5.892;2024-03-23T04:14:25;6.30;89.40
47338;DHT22;33069;51.970;5.892;2024-03-23T04:17:11;6.30;89.30
47338;DHT22;33069;51.970;5.892;2024-03-23T04:19:58;6.20;89.20
47338;DHT22;33069;51.970;5.892;2024-03-23T04:22:44;6.30;89.20
47338;DHT22;33069;51.970;5.892;2024-03-23T04:25:30;6.20;89.10
47338;DHT22;33069;51.970;5.892;2024-03-23T04:28:17;6.20;89.00
47338;DHT22;33069;51.970;5.892;2024-03-23T04:31:04;6.10;88.90
47338;DHT22;33069;51.970;5.892;2024-03-23T04:33:50;6.10;88.80
47338;DHT22;33069;51.970;5.892;2024-03-23T04:36:36;6.00;88.70
47338;DHT22;33069;51.970;5.892;2024-03-23T04:39:21;6.00;88.60
47338;DHT22;33069;51.970;5.892;2024-03-23T04:42:07;6.00;88.60
47338;DHT22;33069;51.970;5.892;2024-03-23T04:44:53;5.90;88.50
47338;DHT22;33069;51.970;5.892;2024-03-23T04:47:40;5.80;88.60
47338;DHT22;33069;51.970;5.892;2024-03-23T04:50:26;5.70;88.50
47338;DHT22;33069;51.970;5.892;2024-03-23T04:53:12;5.80;88.60
47338;DHT22;33069;51.970;5.892;2024-03-23T04:55:58;5.70;88.40
47338;DHT22;33069;51.970;5.892;2024-03-23T04:58:46;5.80;88.30
47338;DHT22;33069;51.970;5.892;2024-03-23T05:01:32;5.70;88.20
47338;DHT22;33069;51.970;5.892;2024-03-23T05:04:18;5.70;88.10
47338;DHT22;33069;51.970;5.892;2024-03-23T05:07:04;5.60;88.00
47338;DHT22;33069;51.970;5.892;2024-03-23T05:09:50;5.50;87.80
47338;DHT22;33069;51.970;5.892;2024-03-23T05:12:40;5.50;87.80
47338;DHT22;33069;51.970;5.892;2024-03-23T05:15:26;5.50;87.80
47338;DHT22;33069;51.970;5.892;2024-03-23T05:18:12;5.50;87.70
47338;DHT22;33069;51.970;5.892;2024-03-23T05:20:58;5.50;87.70
47338;DHT22;33069;51.970;5.892;2024-03-23T05:23:44;5.50;87.70
47338;DHT22;33069;51.970;5.892;2024-03-23T05:26:31;5.50;87.70
47338;DHT22;33069;51.970;5.892;2024-03-23T05:29:17;5.60;87.60
47338;DHT22;33069;51.970;5.892;2024-03-23T05:32:03;5.50;87.50
47338;DHT22;33069;51.970;5.892;2024-03-23T05:34:49;5.40;87.70
47338;DHT22;33069;51.970;5.892;2024-03-23T05:37:36;5.40;87.90
47338;DHT22;33069;51.970;5.892;2024-03-23T05:40:23;5.30;87.90
47338;DHT22;33069;51.970;5.892;2024-03-23T05:43:08;5.40;87.80
47338;DHT22;33069;51.970;5.892;2024-03-23T05:45:59;5.20;87.70
47338;DHT22;33069;51.970;5.892;2024-03-23T05:48:46;5.20;87.80
47338;DHT22;33069;51.970;5.892;2024-03-23T05:51:32;5.20;87.80
47338;DHT22;33069;51.970;5.892;2024-03-23T05:54:18;5.30;87.90
47338;DHT22;33069;51.970;5.892;2024-03-23T05:57:05;5.30;87.80
47338;DHT22;33069;51.970;5.892;2024-03-23T05:59:53;5.30;87.90
47338;DHT22;33069;51.970;5.892;2024-03-23T06:02:39;5.10;87.80
47338;DHT22;33069;51.970;5.892;2024-03-23T06:05:25;5.30;87.90
47338;DHT22;33069;51.970;5.892;2024-03-23T06:08:11;5.30;87.90
47338;DHT22;33069;51.970;5.892;2024-03-23T06:10:58;5.20;87.90
47338;DHT22;33069;51.970;5.892;2024-03-23T06:13:44;5.20;87.90
47338;DHT22;33069;51.970;5.892;2024-03-23T06:16:30;5.30;87.90
47338;DHT22;33069;51.970;5.892;2024-03-23T06:19:16;5.40;87.70
47338;DHT22;33069;51.970;5.892;2024-03-23T06:22:02;5.30;87.60
47338;DHT22;33069;51.970;5.892;2024-03-23T06:24:48;5.50;87.60
47338;DHT22;33069;51.970;5.892;2024-03-23T06:27:34;5.30;87.40
47338;DHT22;33069;51.970;5.892;2024-03-23T06:30:20;5.40;87.60
47338;DHT22;33069;51.970;5.892;2024-03-23T06:33:06;5.60;87.40
47338;DHT22;33069;51.970;5.892;2024-03-23T06:35:52;5.50;87.00
47338;DHT22;33069;51.970;5.892;2024-03-23T06:38:38;5.60;86.80
47338;DHT22;33069;51.970;5.892;2024-03-23T06:41:24;5.70;86.20
47338;DHT22;33069;51.970;5.892;2024-03-23T06:44:11;5.70;85.80
47338;DHT22;33069;51.970;5.892;2024-03-23T06:46:57;5.90;85.30
47338;DHT22;33069;51.970;5.892;2024-03-23T06:49:43;5.90;85.30
47338;DHT22;33069;51.970;5.892;2024-03-23T06:52:30;6.20;85.30
47338;DHT22;33069;51.970;5.892;2024-03-23T06:55:16;6.30;84.00
47338;DHT22;33069;51.970;5.892;2024-03-23T06:58:02;6.30;83.70
47338;DHT22;33069;51.970;5.892;2024-03-23T07:00:48;6.40;83.70
47338;DHT22;33069;51.970;5.892;2024-03-23T07:03:34;6.30;83.50
47338;DHT22;33069;51.970;5.892;2024-03-23T07:06:20;6.50;83.80
47338;DHT22;33069;51.970;5.892;2024-03-23T07:09:06;6.60;83.40
47338;DHT22;33069;51.970;5.892;2024-03-23T07:11:59;6.50;82.80
47338;DHT22;33069;51.970;5.892;2024-03-23T07:14:45;6.50;83.30
47338;DHT22;33069;51.970;5.892;2024-03-23T07:17:31;6.70;83.60
47338;DHT22;33069;51.970;5.892;2024-03-23T07:20:18;6.70;83.40
47338;DHT22;33069;51.970;5.892;2024-03-23T07:23:05;6.60;82.60
47338;DHT22;33069;51.970;5.892;2024-03-23T07:25:59;6.60;82.90
47338;DHT22;33069;51.970;5.892;2024-03-23T07:28:45;6.60;82.90
47338;DHT22;33069;51.970;5.892;2024-03-23T07:31:31;6.60;83.10
47338;DHT22;33069;51.970;5.892;2024-03-23T07:34:18;6.50;82.90
47338;DHT22;33069;51.970;5.892;2024-03-23T07:37:04;6.70;82.70
47338;DHT22;33069;51.970;5.892;2024-03-23T07:39:49;6.60;82.50
47338;DHT22;33069;51.970;5.892;2024-03-23T07:42:35;6.70;82.80
47338;DHT22;33069;51.970;5.892;2024-03-23T07:45:21;6.70;82.80
47338;DHT22;33069;51.970;5.892;2024-03-23T07:48:07;6.60;82.80
47338;DHT22;33069;51.970;5.892;2024-03-23T07:51:05;6.60;82.70
47338;DHT22;33069;51.970;5.892;2024-03-23T07:53:51;6.70;82.50
47338;DHT22;33069;51.970;5.892;2024-03-23T07:56:38;6.70;82.60
47338;DHT22;33069;51.970;5.892;2024-03-23T07:59:24;6.70;82.30
47338;DHT22;33069;51.970;5.892;2024-03-23T08:02:11;6.80;81.90
47338;DHT22;33069;51.970;5.892;2024-03-23T08:04:57;6.80;81.70
47338;DHT22;33069;51.970;5.892;2024-03-23T08:07:43;7.00;81.60
47338;DHT22;33069;51.970;5.892;2024-03-23T08:10:28;7.10;82.10
47338;DHT22;33069;51.970;5.892;2024-03-23T08:13:15;7.20;79.60
47338;DHT22;33069;51.970;5.892;2024-03-23T08:16:02;7.40;79.40
47338;DHT22;33069;51.970;5.892;2024-03-23T08:18:51;7.50;79.10
47338;DHT22;33069;51.970;5.892;2024-03-23T08:21:37;7.70;79.40
47338;DHT22;33069;51.970;5.892;2024-03-23T08:24:23;7.60;77.50
47338;DHT22;33069;51.970;5.892;2024-03-23T08:27:09;7.60;77.60
47338;DHT22;33069;51.970;5.892;2024-03-23T08:29:55;7.50;76.80
47338;DHT22;33069;51.970;5.892;2024-03-23T08:32:41;7.50;77.50
47338;DHT22;33069;51.970;5.892;2024-03-23T08:35:27;7.70;78.10
47338;DHT22;33069;51.970;5.892;2024-03-23T08:38:13;7.90;76.10
47338;DHT22;33069;51.970;5.892;2024-03-23T08:41:04;8.00;74.90
47338;DHT22;33069;51.970;5.892;2024-03-23T08:43:51;8.00;73.50
47338;DHT22;33069;51.970;5.892;2024-03-23T08:46:37;7.90;73.50
47338;DHT22;33069;51.970;5.892;2024-03-23T08:49:24;7.80;73.10
47338;DHT22;33069;51.970;5.892;2024-03-23T08:52:10;8.00;72.70
47338;DHT22;33069;51.970;5.892;2024-03-23T08:54:56;8.20;71.50
47338;DHT22;33069;51.970;5.892;2024-03-23T08:57:42;8.30;71.20
47338;DHT22;33069;51.970;5.892;2024-03-23T09:00:30;8.40;72.10
47338;DHT22;33069;51.970;5.892;2024-03-23T09:03:16;8.30;70.90
47338;DHT22;33069;51.970;5.892;2024-03-23T09:06:09;8.10;71.50
47338;DHT22;33069;51.970;5.892;2024-03-23T09:08:56;6.80;74.70
47338;DHT22;33069;51.970;5.892;2024-03-23T09:11:42;6.60;78.20
47338;DHT22;33069;51.970;5.892;2024-03-23T09:14:28;6.50;79.40
47338;DHT22;33069;51.970;5.892;2024-03-23T09:17:15;6.30;80.70
47338;DHT22;33069;51.970;5.892;2024-03-23T09:20:01;6.20;81.80
47338;DHT22;33069;51.970;5.892;2024-03-23T09:22:50;6.10;81.40
47338;DHT22;33069;51.970;5.892;2024-03-23T09:25:40;5.70;81.20
47338;DHT22;33069;51.970;5.892;2024-03-23T09:28:26;5.90;82.60
47338;DHT22;33069;51.970;5.892;2024-03-23T09:31:12;5.80;83.20
47338;DHT22;33069;51.970;5.892;2024-03-23T09:34:00;6.10;84.00
47338;DHT22;33069;51.970;5.892;2024-03-23T09:36:47;6.30;83.60
47338;DHT22;33069;51.970;5.892;2024-03-23T09:39:33;6.60;80.80
47338;DHT22;33069;51.970;5.892;2024-03-23T09:42:19;6.70;80.60
47338;DHT22;33069;51.970;5.892;2024-03-23T09:45:06;6.90;79.70
47338;DHT22;33069;51.970;5.892;2024-03-23T09:47:57;7.10;77.80
47338;DHT22;33069;51.970;5.892;2024-03-23T09:50:44;7.20;77.90
47338;DHT22;33069;51.970;5.892;2024-03-23T09:53:31;7.30;78.10
47338;DHT22;33069;51.970;5.892;2024-03-23T09:56:18;7.40;76.30
47338;DHT22;33069;51.970;5.892;2024-03-23T09:59:04;7.60;77.30
47338;DHT22;33069;51.970;5.892;2024-03-23T10:01:50;7.70;75.40
47338;DHT22;33069;51.970;5.892;2024-03-23T10:04:42;8.00;74.50
47338;DHT22;33069;51.970;5.892;2024-03-23T10:07:28;8.50;74.30
47338;DHT22;33069;51.970;5.892;2024-03-23T10:10:15;8.40;70.90
47338;DHT22;33069;51.970;5.892;2024-03-23T10:13:02;8.20;68.20
47338;DHT22;33069;51.970;5.892;2024-03-23T10:15:55;8.30;67.70
47338;DHT22;33069;51.970;5.892;2024-03-23T10:18:41;8.40;67.50
47338;DHT22;33069;51.970;5.892;2024-03-23T10:21:27;8.60;67.20
47338;DHT22;33069;51.970;5.892;2024-03-23T10:24:13;8.70;65.90
47338;DHT22;33069;51.970;5.892;2024-03-23T10:26:59;8.80;64.20
47338;DHT22;33069;51.970;5.892;2024-03-23T10:29:49;8.60;63.40
47338;DHT22;33069;51.970;5.892;2024-03-23T10:32:35;8.70;65.10
47338;DHT22;33069;51.970;5.892;2024-03-23T10:35:21;8.40;66.20
47338;DHT22;33069;51.970;5.892;2024-03-23T10:38:08;7.00;73.00
47338;DHT22;33069;51.970;5.892;2024-03-23T10:40:55;6.40;76.70
47338;DHT22;33069;51.970;5.892;2024-03-23T10:43:45;6.20;77.90
47338;DHT22;33069;51.970;5.892;2024-03-23T10:46:31;6.40;77.10
47338;DHT22;33069;51.970;5.892;2024-03-23T10:49:17;6.80;77.30
47338;DHT22;33069;51.970;5.892;2024-03-23T10:52:04;7.30;75.00
47338;DHT22;33069;51.970;5.892;2024-03-23T10:54:51;7.60;72.70
47338;DHT22;33069;51.970;5.892;2024-03-23T10:57:53;7.90;71.60
47338;DHT22;33069;51.970;5.892;2024-03-23T11:00:40;8.30;70.30
47338;DHT22;33069;51.970;5.892;2024-03-23T11:03:36;8.40;67.60
47338;DHT22;33069;51.970;5.892;2024-03-23T11:06:39;8.40;67.30
47338;DHT22;33069;51.970;5.892;2024-03-23T11:15:12;8.70;66.60
47338;DHT22;33069;51.970;5.892;2024-03-23T11:18:06;8.80;64.70
47338;DHT22;33069;51.970;5.892;2024-03-23T11:20:53;8.80;65.00
47338;DHT22;33069;51.970;5.892;2024-03-23T11:23:39;8.70;62.90
47338;DHT22;33069;51.970;5.892;2024-03-23T11:26:25;8.90;66.60
47338;DHT22;33069;51.970;5.892;2024-03-23T11:29:14;9.00;62.70
47338;DHT22;33069;51.970;5.892;2024-03-23T11:32:01;9.00;64.10
47338;DHT22;33069;51.970;5.892;2024-03-23T11:34:48;9.10;63.40
47338;DHT22;33069;51.970;5.892;2024-03-23T11:37:34;9.20;63.30
47338;DHT22;33069;51.970;5.892;2024-03-23T11:40:21;8.90;63.50
47338;DHT22;33069;51.970;5.892;2024-03-23T11:43:08;8.80;63.20
47338;DHT22;33069;51.970;5.892;2024-03-23T11:45:55;8.20;67.80
47338;DHT22;33069;51.970;5.892;2024-03-23T11:48:50;8.30;68.70
47338;DHT22;33069;51.970;5.892;2024-03-23T11:51:37;8.30;67.20
47338;DHT22;33069;51.970;5.892;2024-03-23T11:54:24;8.40;67.80
47338;DHT22;33069;51.970;5.892;2024-03-23T11:57:10;8.80;66.60
47338;DHT22;33069;51.970;5.892;2024-03-23T11:59:56;8.60;66.10
47338;DHT22;33069;51.970;5.892;2024-03-23T12:02:42;8.70;65.10
47338;DHT22;33069;51.970;5.892;2024-03-23T12:05:29;8.70;65.70
47338;DHT22;33069;51.970;5.892;2024-03-23T12:11:16;8.50;62.40
47338;DHT22;33069;51.970;5.892;2024-03-23T12:14:02;8.60;64.00
47338;DHT22;33069;51.970;5.892;2024-03-23T12:16:48;8.20;66.60
47338;DHT22;33069;51.970;5.892;2024-03-23T12:19:34;8.00;67.90
47338;DHT22;33069;51.970;5.892;2024-03-23T12:22:23;7.60;66.50
47338;DHT22;33069;51.970;5.892;2024-03-23T12:25:09;7.70;68.00
47338;DHT22;33069;51.970;5.892;2024-03-23T12:28:01;7.70;69.20
47338;DHT22;33069;51.970;5.892;2024-03-23T12:30:47;8.10;68.70
47338;DHT22;33069;51.970;5.892;2024-03-23T12:33:33;8.30;67.10
47338;DHT22;33069;51.970;5.892;2024-03-23T12:36:18;8.40;64.40
47338;DHT22;33069;51.970;5.892;2024-03-23T12:39:04;8.40;65.30
47338;DHT22;33069;51.970;5.892;2024-03-23T12:41:50;8.80;63.50
47338;DHT22;33069;51.970;5.892;2024-03-23T12:44:38;8.90;64.20
47338;DHT22;33069;51.970;5.892;2024-03-23T12:47:24;9.10;62.50
47338;DHT22;33069;51.970;5.892;2024-03-23T12:50:10;9.30;60.70
47338;DHT22;33069;51.970;5.892;2024-03-23T12:52:56;9.50;60.00
47338;DHT22;33069;51.970;5.892;2024-03-23T12:55:42;9.60;58.60
47338;DHT22;33069;51.970;5.892;2024-03-23T12:58:28;9.30;58.40
47338;DHT22;33069;51.970;5.892;2024-03-23T13:01:14;8.60;63.50
47338;DHT22;33069;51.970;5.892;2024-03-23T13:04:00;8.60;65.10
47338;DHT22;33069;51.970;5.892;2024-03-23T13:06:48;8.80;64.60
47338;DHT22;33069;51.970;5.892;2024-03-23T13:09:33;9.10;64.60
47338;DHT22;33069;51.970;5.892;2024-03-23T13:12:20;9.30;60.00
47338;DHT22;33069;51.970;5.892;2024-03-23T13:15:06;9.30;58.20
47338;DHT22;33069;51.970;5.892;2024-03-23T13:17:52;9.70;58.90
47338;DHT22;33069;51.970;5.892;2024-03-23T13:20:39;9.70;58.70
47338;DHT22;33069;51.970;5.892;2024-03-23T13:23:25;9.30;58.40
47338;DHT22;33069;51.970;5.892;2024-03-23T13:26:11;9.20;59.30
47338;DHT22;33069;51.970;5.892;2024-03-23T13:28:57;9.20;61.00
47338;DHT22;33069;51.970;5.892;2024-03-23T13:31:43;9.00;61.50
47338;DHT22;33069;51.970;5.892;2024-03-23T13:34:29;8.80;63.50
47338;DHT22;33069;51.970;5.892;2024-03-23T13:37:15;8.60;64.10
47338;DHT22;33069;51.970;5.892;2024-03-23T13:40:01;8.60;64.50
47338;DHT22;33069;51.970;5.892;2024-03-23T13:42:48;8.80;65.80
47338;DHT22;33069;51.970;5.892;2024-03-23T13:45:34;8.70;63.90
47338;DHT22;33069;51.970;5.892;2024-03-23T13:48:24;8.60;64.80
47338;DHT22;33069;51.970;5.892;2024-03-23T13:51:10;8.80;65.70
47338;DHT22;33069;51.970;5.892;2024-03-23T13:53:56;9.10;66.70
47338;DHT22;33069;51.970;5.892;2024-03-23T13:56:42;9.00;62.90
47338;DHT22;33069;51.970;5.892;2024-03-23T13:59:29;8.80;62.40
47338;DHT22;33069;51.970;5.892;2024-03-23T14:02:15;8.60;65.90
47338;DHT22;33069;51.970;5.892;2024-03-23T14:05:02;7.40;70.20
47338;DHT22;33069;51.970;5.892;2024-03-23T14:07:48;7.20;70.90
47338;DHT22;33069;51.970;5.892;2024-03-23T14:10:35;7.40;70.60
47338;DHT22;33069;51.970;5.892;2024-03-23T14:13:23;7.50;70.60
47338;DHT22;33069;51.970;5.892;2024-03-23T14:16:09;7.80;69.10
47338;DHT22;33069;51.970;5.892;2024-03-23T14:18:55;8.10;73.30
47338;DHT22;33069;51.970;5.892;2024-03-23T14:21:41;8.00;72.20
47338;DHT22;33069;51.970;5.892;2024-03-23T14:24:27;7.70;70.20
47338;DHT22;33069;51.970;5.892;2024-03-23T14:27:13;7.70;69.20
47338;DHT22;33069;51.970;5.892;2024-03-23T14:29:59;7.60;69.60
47338;DHT22;33069;51.970;5.892;2024-03-23T14:32:45;7.60;68.70
47338;DHT22;33069;51.970;5.892;2024-03-23T14:35:31;7.70;68.90
47338;DHT22;33069;51.970;5.892;2024-03-23T14:38:19;7.60;69.00
47338;DHT22;33069;51.970;5.892;2024-03-23T14:41:05;7.50;67.10
47338;DHT22;33069;51.970;5.892;2024-03-23T14:43:51;6.70;70.80
47338;DHT22;33069;51.970;5.892;2024-03-23T14:46:39;6.30;73.20
47338;DHT22;33069;51.970;5.892;2024-03-23T14:49:25;6.10;76.40
47338;DHT22;33069;51.970;5.892;2024-03-23T14:52:11;6.30;75.60
47338;DHT22;33069;51.970;5.892;2024-03-23T14:54:57;6.40;74.40
47338;DHT22;33069;51.970;5.892;2024-03-23T14:57:43;6.50;75.40
47338;DHT22;33069;51.970;5.892;2024-03-23T15:00:29;6.50;74.30
47338;DHT22;33069;51.970;5.892;2024-03-23T15:03:16;6.80;73.70
47338;DHT22;33069;51.970;5.892;2024-03-23T15:06:02;6.70;73.20
47338;DHT22;33069;51.970;5.892;2024-03-23T15:08:48;6.80;72.70
47338;DHT22;33069;51.970;5.892;2024-03-23T15:11:35;7.00;72.40
47338;DHT22;33069;51.970;5.892;2024-03-23T15:14:21;7.30;71.50
47338;DHT22;33069;51.970;5.892;2024-03-23T15:17:07;7.70;70.30
47338;DHT22;33069;51.970;5.892;2024-03-23T15:19:54;7.90;68.90
47338;DHT22;33069;51.970;5.892;2024-03-23T15:22:40;8.40;67.50
47338;DHT22;33069;51.970;5.892;2024-03-23T15:25:27;8.60;65.10
47338;DHT22;33069;51.970;5.892;2024-03-23T15:28:13;8.70;65.10
47338;DHT22;33069;51.970;5.892;2024-03-23T15:30:59;9.00;64.90
47338;DHT22;33069;51.970;5.892;2024-03-23T15:33:45;9.20;61.60
47338;DHT22;33069;51.970;5.892;2024-03-23T15:36:31;9.60;60.80
47338;DHT22;33069;51.970;5.892;2024-03-23T15:39:17;9.40;62.40
47338;DHT22;33069;51.970;5.892;2024-03-23T15:42:04;9.80;62.00
47338;DHT22;33069;51.970;5.892;2024-03-23T15:44:51;9.80;62.10
47338;DHT22;33069;51.970;5.892;2024-03-23T15:47:37;10.10;62.20
47338;DHT22;33069;51.970;5.892;2024-03-23T15:50:23;10.00;63.50
47338;DHT22;33069;51.970;5.892;2024-03-23T15:53:10;10.00;64.70
47338;DHT22;33069;51.970;5.892;2024-03-23T15:56:00;9.60;64.60
47338;DHT22;33069;51.970;5.892;2024-03-23T15:58:46;9.20;66.40
47338;DHT22;33069;51.970;5.892;2024-03-23T16:01:35;9.70;59.50
47338;DHT22;33069;51.970;5.892;2024-03-23T16:04:21;9.30;59.80
47338;DHT22;33069;51.970;5.892;2024-03-23T16:07:07;9.50;59.90
47338;DHT22;33069;51.970;5.892;2024-03-23T16:09:53;9.20;59.90
47338;DHT22;33069;51.970;5.892;2024-03-23T16:12:39;9.50;59.40
47338;DHT22;33069;51.970;5.892;2024-03-23T16:15:26;9.30;59.20
47338;DHT22;33069;51.970;5.892;2024-03-23T16:18:12;9.00;61.70
47338;DHT22;33069;51.970;5.892;2024-03-23T16:21:04;9.70;61.40
47338;DHT22;33069;51.970;5.892;2024-03-23T16:23:50;9.40;61.90
47338;DHT22;33069;51.970;5.892;2024-03-23T16:26:36;9.60;60.90
47338;DHT22;33069;51.970;5.892;2024-03-23T16:29:22;9.60;61.40
47338;DHT22;33069;51.970;5.892;2024-03-23T16:32:08;9.10;63.30
47338;DHT22;33069;51.970;5.892;2024-03-23T16:34:54;9.60;63.10
47338;DHT22;33069;51.970;5.892;2024-03-23T16:37:41;9.60;62.70
47338;DHT22;33069;51.970;5.892;2024-03-23T16:40:27;9.50;63.20
47338;DHT22;33069;51.970;5.892;2024-03-23T16:43:13;9.70;62.60
47338;DHT22;33069;51.970;5.892;2024-03-23T16:46:02;9.60;62.60
47338;DHT22;33069;51.970;5.892;2024-03-23T16:48:49;9.00;64.70
47338;DHT22;33069;51.970;5.892;2024-03-23T16:51:35;8.90;65.50
47338;DHT22;33069;51.970;5.892;2024-03-23T16:54:21;9.10;66.00
47338;DHT22;33069;51.970;5.892;2024-03-23T16:57:07;9.00;65.20
47338;DHT22;33069;51.970;5.892;2024-03-23T16:59:53;8.30;66.50
47338;DHT22;33069;51.970;5.892;2024-03-23T17:02:39;8.50;66.40
47338;DHT22;33069;51.970;5.892;2024-03-23T17:05:25;8.20;68.10
47338;DHT22;33069;51.970;5.892;2024-03-23T17:08:11;8.00;68.90
47338;DHT22;33069;51.970;5.892;2024-03-23T17:11:02;8.10;66.80
47338;DHT22;33069;51.970;5.892;2024-03-23T17:13:51;7.80;67.70
47338;DHT22;33069;51.970;5.892;2024-03-23T17:16:39;7.30;69.70
47338;DHT22;33069;51.970;5.892;2024-03-23T17:19:25;7.60;69.00
47338;DHT22;33069;51.970;5.892;2024-03-23T17:22:12;7.70;68.10
47338;DHT22;33069;51.970;5.892;2024-03-23T17:24:58;7.70;68.10
47338;DHT22;33069;51.970;5.892;2024-03-23T17:27:44;7.40;69.80
47338;DHT22;33069;51.970;5.892;2024-03-23T17:30:30;7.40;70.40
47338;DHT22;33069;51.970;5.892;2024-03-23T17:33:17;7.40;71.60
47338;DHT22;33069;51.970;5.892;2024-03-23T17:36:03;7.30;72.80
47338;DHT22;33069;51.970;5.892;2024-03-23T17:38:49;7.20;73.30
47338;DHT22;33069;51.970;5.892;2024-03-23T17:41:35;7.00;74.50
47338;DHT22;33069;51.970;5.892;2024-03-23T17:44:23;6.50;77.20
47338;DHT22;33069;51.970;5.892;2024-03-23T17:47:08;5.50;80.10
47338;DHT22;33069;51.970;5.892;2024-03-23T17:49:54;4.60;81.00
47338;DHT22;33069;51.970;5.892;2024-03-23T17:52:42;4.50;82.20
47338;DHT22;33069;51.970;5.892;2024-03-23T17:55:28;4.70;83.70
47338;DHT22;33069;51.970;5.892;2024-03-23T17:58:14;4.80;84.60
47338;DHT22;33069;51.970;5.892;2024-03-23T18:01:06;4.70;84.50
47338;DHT22;33069;51.970;5.892;2024-03-23T18:03:53;5.10;85.40
47338;DHT22;33069;51.970;5.892;2024-03-23T18:06:39;5.30;85.90
47338;DHT22;33069;51.970;5.892;2024-03-23T18:09:25;5.10;86.00
47338;DHT22;33069;51.970;5.892;2024-03-23T18:12:11;5.20;86.10
47338;DHT22;33069;51.970;5.892;2024-03-23T18:14:57;5.10;86.20
47338;DHT22;33069;51.970;5.892;2024-03-23T18:17:45;5.30;86.50
47338;DHT22;33069;51.970;5.892;2024-03-23T18:20:31;5.20;86.60
47338;DHT22;33069;51.970;5.892;2024-03-23T18:23:17;4.90;86.40
47338;DHT22;33069;51.970;5.892;2024-03-23T18:26:03;5.10;86.80
47338;DHT22;33069;51.970;5.892;2024-03-23T18:28:50;5.00;86.70
47338;DHT22;33069;51.970;5.892;2024-03-23T18:31:37;5.10;86.80
47338;DHT22;33069;51.970;5.892;2024-03-23T18:34:23;5.00;86.50
47338;DHT22;33069;51.970;5.892;2024-03-23T18:37:09;5.00;86.60
47338;DHT22;33069;51.970;5.892;2024-03-23T18:39:55;5.10;86.90
47338;DHT22;33069;51.970;5.892;2024-03-23T18:42:41;5.00;86.90
47338;DHT22;33069;51.970;5.892;2024-03-23T18:45:27;4.90;87.10
47338;DHT22;33069;51.970;5.892;2024-03-23T18:48:13;5.00;87.40
47338;DHT22;33069;51.970;5.892;2024-03-23T18:51:02;5.00;87.50